createdAt,value
2022-10-28T00:00:37.257Z,6.25
2022-10-28T00:03:14.449Z,6.57
2022-10-28T00:09:54.101Z,6.44
2022-10-28T00:14:18.227Z,6.64
2022-10-28T00:17:21.858Z,6.59
2022-10-28T00:24:57.835Z,6.34
2022-10-28T00:27:54.916Z,6.29
2022-10-28T00:30:53.485Z,6.38
2022-10-28T00:33:49.513Z,6.26
2022-10-28T00:44:18.268Z,6.41
2022-10-28T00:51:24.772Z,6.64
2022-10-28T00:59:09.713Z,6.49
2022-10-28T01:01:45.421Z,6.54
2022-10-28T01:04:25.343Z,6.91
2022-10-28T01:09:54.063Z,6.60
2022-10-28T01:12:32.291Z,6.78
2022-10-28T01:15:26.126Z,6.67
2022-10-28T01:18:17.664Z,6.36
2022-10-28T01:21:09.436Z,6.88
2022-10-28T01:24:04.336Z,6.86
2022-10-28T01:26:53.813Z,7.02
2022-10-28T01:29:30.532Z,7.03
2022-10-28T01:32:12.857Z,6.83
2022-10-28T01:34:55.263Z,6.62
2022-10-28T01:37:25.826Z,6.60
2022-10-28T01:40:43.858Z,7.02
2022-10-28T01:43:18.177Z,7.07
2022-10-28T01:46:00.973Z,7.05
2022-10-28T01:49:08.668Z,7.12
2022-10-28T01:52:23.930Z,6.95
2022-10-28T01:55:04.333Z,7.06
2022-10-28T01:57:49.106Z,7.09
2022-10-28T02:00:30.681Z,7.16
2022-10-28T02:03:33.710Z,7.09
2022-10-28T02:06:05.931Z,6.49
2022-10-28T02:08:44.323Z,6.88
2022-10-28T02:11:54.756Z,7.00
2022-10-28T02:14:50.186Z,7.00
2022-10-28T02:17:22.099Z,7.16
2022-10-28T02:20:13.897Z,6.79
2022-10-28T02:23:30.176Z,7.32
2022-10-28T02:26:09.676Z,6.89
2022-10-28T02:28:49.717Z,7.46
2022-10-28T02:32:05.487Z,7.26
2022-10-28T02:35:32.881Z,7.27
2022-10-28T02:39:09.959Z,7.37
2022-10-28T02:41:53.874Z,7.62
2022-10-28T02:45:26.285Z,7.46
2022-10-28T02:48:10.023Z,7.57
2022-10-28T02:54:10.177Z,7.67
2022-10-28T02:56:56.095Z,7.59
2022-10-28T02:59:32.592Z,7.50
2022-10-28T03:02:06.359Z,7.59
2022-10-28T03:04:50.043Z,7.83
2022-10-28T03:07:46.645Z,7.69
2022-10-28T03:10:23.786Z,7.47
2022-10-28T03:12:53.182Z,7.81
2022-10-28T03:15:24.647Z,7.76
2022-10-28T03:18:03.188Z,7.80
2022-10-28T03:20:33.709Z,7.65
2022-10-28T03:23:04.998Z,7.73
2022-10-28T03:25:39.143Z,7.91
2022-10-28T03:28:19.959Z,7.94
2022-10-28T03:34:09.885Z,8.17
2022-10-28T03:36:42.017Z,7.99
2022-10-28T03:43:49.514Z,7.88
2022-10-28T03:46:20.513Z,8.05
2022-10-28T03:48:53.408Z,7.93
2022-10-28T03:51:25.553Z,7.82
2022-10-28T03:54:11.493Z,7.77
2022-10-28T03:56:55.576Z,7.83
2022-10-28T03:59:55.730Z,7.87
2022-10-28T04:02:38.220Z,7.79
2022-10-28T04:06:10.455Z,7.73
2022-10-28T04:09:08.496Z,8.03
2022-10-28T04:11:41.036Z,7.87
2022-10-28T04:14:25.457Z,7.91
2022-10-28T04:17:45.630Z,7.82
2022-10-28T04:21:15.642Z,7.85
2022-10-28T04:23:45.942Z,7.93
2022-10-28T04:26:53.046Z,7.90
2022-10-28T04:41:38.441Z,8.11
2022-10-28T04:44:21.203Z,8.25
2022-10-28T04:47:11.569Z,8.13
2022-10-28T04:50:54.164Z,8.26
2022-10-28T04:53:46.731Z,8.30
2022-10-28T04:57:22.928Z,8.53
2022-10-28T05:03:04.300Z,8.28
2022-10-28T05:06:04.581Z,8.37
2022-10-28T05:08:55.649Z,8.69
2022-10-28T05:15:39.304Z,8.55
2022-10-28T05:18:26.305Z,8.84
2022-10-28T05:22:02.066Z,8.62
2022-10-28T05:24:42.959Z,8.93
2022-10-28T05:27:48.974Z,8.80
2022-10-28T05:30:25.875Z,9.08
2022-10-28T05:33:38.793Z,8.76
2022-10-28T05:37:06.496Z,8.90
2022-10-28T05:40:25.983Z,8.61
2022-10-28T05:44:08.796Z,9.00
2022-10-28T05:47:23.846Z,8.92
2022-10-28T05:50:17.027Z,9.03
2022-10-28T05:56:47.345Z,9.18
2022-10-28T05:59:54.469Z,9.01
2022-10-28T06:11:24.258Z,9.10
2022-10-28T06:14:06.676Z,8.87
2022-10-28T06:16:51.985Z,9.18
2022-10-28T06:28:57.554Z,8.65
2022-10-28T06:34:53.270Z,8.36
2022-10-28T06:37:44.950Z,8.54
2022-10-28T06:44:13.063Z,8.68
2022-10-28T06:47:21.376Z,8.68
2022-10-28T06:50:09.736Z,8.65
2022-10-28T06:53:17.597Z,9.06
2022-10-28T06:56:08.392Z,9.00
2022-10-28T07:12:53.088Z,8.60
2022-10-28T07:16:00.165Z,8.79
2022-10-28T07:18:38.280Z,9.01
2022-10-28T07:26:04.920Z,8.61
2022-10-28T07:29:37.343Z,8.57
2022-10-28T07:32:13.297Z,8.50
2022-10-28T07:38:51.673Z,8.77
2022-10-28T07:45:50.512Z,8.54
2022-10-28T07:49:10.226Z,8.90
2022-10-28T07:51:54.622Z,8.60
2022-10-28T07:55:05.943Z,8.74
2022-10-28T08:18:12.145Z,9.01
2022-10-28T08:20:41.894Z,9.07
2022-10-28T08:23:49.614Z,9.02
2022-10-28T08:26:32.093Z,9.18
2022-10-28T08:29:02.763Z,8.58
2022-10-28T08:31:42.457Z,8.74
2022-10-28T08:37:32.461Z,9.11
2022-10-28T08:40:12.119Z,9.19
2022-10-28T08:42:52.165Z,8.89
2022-10-28T08:45:33.294Z,9.22
2022-10-28T08:48:16.359Z,9.09
2022-10-28T08:51:00.398Z,9.20
2022-10-28T08:54:00.114Z,8.85
2022-10-28T08:57:17.120Z,9.30
2022-10-28T09:00:01.247Z,8.94
2022-10-28T09:02:47.776Z,8.99
2022-10-28T09:05:17.456Z,8.98
2022-10-28T09:07:47.935Z,9.14
2022-10-28T09:10:37.002Z,9.22
2022-10-28T09:13:11.414Z,9.31
2022-10-28T09:16:11.306Z,9.34
2022-10-28T09:19:24.036Z,9.12
2022-10-28T09:22:21.239Z,9.02
2022-10-28T09:24:51.654Z,9.00
2022-10-28T09:27:54.385Z,9.15
2022-10-28T09:31:21.270Z,8.94
2022-10-28T09:34:05.983Z,9.03
2022-10-28T09:37:22.101Z,9.31
2022-10-28T09:40:20.646Z,9.06
2022-10-28T09:43:09.019Z,9.34
2022-10-28T09:45:48.949Z,9.46
2022-10-28T09:48:53.392Z,9.45
2022-10-28T09:51:50.574Z,9.05
2022-10-28T09:54:24.151Z,9.28
2022-10-28T09:57:22.154Z,9.16
2022-10-28T10:00:24.610Z,9.13
2022-10-28T10:03:01.816Z,9.36
2022-10-28T10:05:41.463Z,9.29
2022-10-28T10:08:16.026Z,9.49
2022-10-28T10:10:50.531Z,9.54
2022-10-28T10:13:54.064Z,9.23
2022-10-28T10:16:56.077Z,9.36
2022-10-28T10:20:04.821Z,9.31
2022-10-28T10:23:08.392Z,9.55
2022-10-28T10:25:37.988Z,9.31
2022-10-28T10:28:18.362Z,9.47
2022-10-28T10:31:16.266Z,9.40
2022-10-28T10:34:13.831Z,9.43
2022-10-28T10:36:56.115Z,9.15
2022-10-28T10:39:38.445Z,9.35
2022-10-28T10:42:24.372Z,9.43
2022-10-28T10:48:21.240Z,9.19
2022-10-28T10:51:24.517Z,9.37
2022-10-28T10:54:04.419Z,9.49
2022-10-28T10:56:39.790Z,9.52
2022-10-28T10:59:23.952Z,9.47
2022-10-28T11:01:53.852Z,9.51
2022-10-28T11:04:45.441Z,9.45
2022-10-28T11:07:22.039Z,9.58
2022-10-28T11:10:06.195Z,9.67
2022-10-28T11:12:57.850Z,9.52
2022-10-28T11:15:37.222Z,9.57
2022-10-28T11:18:24.478Z,9.75
2022-10-28T11:21:14.549Z,9.62
2022-10-28T11:23:56.388Z,9.61
2022-10-28T11:26:44.055Z,9.69
2022-10-28T11:29:18.287Z,9.56
2022-10-28T11:31:58.675Z,9.63
2022-10-28T11:34:56.271Z,9.61
2022-10-28T11:39:22.290Z,9.67
2022-10-28T11:42:08.480Z,9.55
2022-10-28T11:45:05.397Z,9.62
2022-10-28T11:47:39.932Z,9.65
2022-10-28T11:50:58.415Z,9.66
2022-10-28T11:54:34.394Z,9.39
2022-10-28T11:57:41.501Z,9.58
2022-10-28T12:01:39.186Z,9.59
2022-10-28T12:04:44.322Z,9.62
2022-10-28T12:10:54.122Z,9.53
2022-10-28T12:13:41.837Z,9.50
2022-10-28T12:16:51.478Z,9.33
2022-10-28T12:19:54.486Z,9.40
2022-10-28T12:22:58.765Z,9.69
2022-10-28T12:26:14.020Z,9.60
2022-10-28T12:32:33.314Z,9.43
2022-10-28T12:36:02.557Z,9.31
2022-10-28T12:39:30.573Z,8.91
2022-10-28T12:42:44.824Z,9.24
2022-10-28T12:45:24.033Z,8.62
2022-10-28T12:48:04.936Z,8.56
2022-10-28T12:54:26.108Z,7.75
2022-10-28T12:57:14.600Z,7.98
2022-10-28T13:00:17.632Z,8.16
2022-10-28T13:02:54.562Z,7.87
2022-10-28T13:05:38.371Z,7.97
2022-10-28T13:08:14.554Z,7.63
2022-10-28T13:11:20.577Z,8.01
2022-10-28T13:14:02.295Z,7.46
2022-10-28T13:16:54.017Z,7.49
2022-10-28T13:19:40.150Z,7.00
2022-10-28T13:25:22.445Z,7.13
2022-10-28T13:28:04.986Z,7.08
2022-10-28T13:31:10.513Z,6.85
2022-10-28T13:34:24.665Z,6.89
2022-10-28T13:37:41.167Z,6.63
2022-10-28T13:48:36.523Z,7.21
2022-10-28T13:51:14.688Z,6.96
2022-10-28T14:11:05.582Z,7.76
2022-10-28T14:28:33.399Z,7.79
2022-10-28T14:44:23.002Z,7.96
2022-10-28T14:57:29.503Z,7.71
2022-10-28T15:00:24.595Z,7.76
2022-10-28T15:03:45.517Z,7.53
2022-10-28T15:07:01.077Z,7.87
2022-10-28T15:13:32.931Z,8.00
2022-10-28T15:16:24.472Z,7.78
2022-10-28T15:19:42.155Z,7.77
2022-10-28T15:23:00.422Z,7.47
2022-10-28T15:26:01.101Z,7.47
2022-10-28T15:29:16.803Z,7.53
2022-10-28T15:32:41.528Z,7.68
2022-10-28T15:36:17.599Z,7.37
2022-10-28T15:39:13.268Z,7.47
2022-10-28T15:42:18.107Z,7.61
2022-10-28T15:45:42.673Z,7.44
2022-10-28T15:52:54.603Z,7.46
2022-10-28T15:56:44.545Z,7.54
2022-10-28T15:59:53.322Z,7.44
2022-10-28T16:02:56.883Z,7.39
2022-10-28T16:05:41.246Z,7.37
2022-10-28T16:08:38.165Z,7.47
2022-10-28T16:11:31.151Z,7.33
2022-10-28T16:18:16.701Z,7.47
2022-10-28T16:24:25.123Z,7.50
2022-10-28T16:27:42.925Z,7.58
2022-10-28T16:30:42.263Z,7.71
2022-10-28T16:33:58.303Z,7.59
2022-10-28T16:36:34.476Z,7.67
2022-10-28T16:39:19.962Z,7.70
2022-10-28T16:41:50.757Z,7.52
2022-10-28T16:44:22.205Z,7.60
2022-10-28T16:46:54.522Z,7.76
2022-10-28T16:49:26.836Z,7.58
2022-10-28T16:52:09.909Z,7.73
2022-10-28T16:55:00.911Z,7.78
2022-10-28T16:57:38.446Z,7.76
2022-10-28T17:00:22.361Z,7.73
2022-10-28T17:03:26.889Z,7.88
2022-10-28T17:06:21.342Z,7.83
2022-10-28T17:09:33.320Z,7.61
2022-10-28T17:12:06.698Z,7.79
2022-10-28T17:14:38.670Z,7.52
2022-10-28T17:17:10.600Z,7.32
2022-10-28T17:19:42.798Z,7.52
2022-10-28T17:22:17.218Z,7.50
2022-10-28T17:24:52.293Z,7.79
2022-10-28T17:27:22.572Z,7.80
2022-10-28T17:30:01.039Z,7.67
2022-10-28T17:32:41.459Z,7.82
2022-10-28T17:35:37.623Z,7.47
2022-10-28T17:38:43.047Z,7.24
2022-10-28T17:41:42.950Z,7.50
2022-10-28T17:48:07.179Z,7.23
2022-10-28T17:50:55.048Z,7.46
2022-10-28T17:56:50.685Z,7.57
2022-10-28T17:59:47.310Z,7.74
2022-10-28T18:12:42.321Z,7.29
2022-10-28T18:16:32.697Z,7.24
2022-10-28T18:19:25.188Z,7.63
2022-10-28T18:25:46.689Z,7.74
2022-10-28T18:28:40.292Z,7.59
2022-10-28T18:31:21.470Z,7.72
2022-10-28T18:34:28.415Z,7.47
2022-10-28T18:37:14.863Z,7.72
2022-10-28T18:40:02.316Z,7.85
2022-10-28T18:42:34.513Z,7.61
2022-10-28T18:45:09.159Z,7.69
2022-10-28T18:47:41.795Z,7.75
2022-10-28T18:50:49.270Z,7.81
2022-10-28T18:54:09.850Z,7.54
2022-10-28T18:57:44.277Z,7.69
2022-10-28T19:00:54.652Z,7.65
2022-10-28T19:04:03.119Z,7.71
2022-10-28T19:07:06.913Z,7.77
2022-10-28T19:14:53.720Z,7.78
2022-10-28T19:29:41.168Z,7.66
2022-10-28T19:37:22.835Z,7.47
2022-10-28T19:40:37.149Z,7.64
2022-10-28T19:44:16.140Z,7.72
2022-10-28T19:47:37.303Z,7.78
2022-10-28T19:50:59.773Z,7.96
2022-10-28T19:53:41.099Z,7.77
2022-10-28T19:56:34.711Z,7.49
2022-10-28T19:59:15.665Z,7.71
2022-10-28T20:02:01.171Z,7.53
2022-10-28T20:04:36.979Z,7.55
2022-10-28T20:07:09.543Z,7.75
2022-10-28T20:09:38.877Z,7.79
2022-10-28T20:12:24.429Z,7.80
2022-10-28T20:15:02.953Z,7.96
2022-10-28T20:17:45.370Z,7.90
2022-10-28T20:21:13.475Z,7.94
2022-10-28T20:27:22.973Z,7.98
2022-10-28T20:30:01.324Z,7.96
2022-10-28T20:32:55.885Z,7.73
2022-10-28T20:35:39.079Z,7.85
2022-10-28T20:38:40.930Z,8.20
2022-10-28T20:41:17.957Z,8.17
2022-10-28T20:43:54.430Z,8.17
2022-10-28T20:46:34.767Z,8.13
2022-10-28T20:49:06.943Z,7.81
2022-10-28T20:55:14.527Z,7.79
2022-10-28T20:58:04.235Z,7.93
2022-10-28T21:00:55.368Z,8.14
2022-10-28T21:03:45.174Z,7.77
2022-10-28T21:06:42.901Z,7.84
2022-10-28T21:09:53.708Z,7.90
2022-10-28T21:12:26.489Z,7.84
2022-10-28T21:15:11.412Z,7.74
2022-10-28T21:17:42.980Z,7.98
2022-10-28T21:20:22.781Z,7.76
2022-10-28T21:22:56.449Z,7.73
2022-10-28T21:25:55.230Z,7.74
2022-10-28T21:32:30.670Z,7.82
2022-10-28T21:35:12.966Z,7.78
2022-10-28T21:38:58.628Z,7.99
2022-10-28T21:45:52.792Z,8.10
2022-10-28T21:48:44.951Z,7.95
2022-10-28T21:51:48.088Z,7.94
2022-10-28T21:54:18.895Z,7.93
2022-10-28T21:57:20.861Z,8.12
2022-10-28T22:05:23.077Z,8.14
2022-10-28T22:08:53.390Z,8.07
2022-10-28T22:13:14.150Z,8.24
2022-10-28T22:28:54.730Z,8.43
2022-10-28T22:32:04.135Z,8.50
2022-10-28T22:38:50.267Z,8.31
2022-10-28T22:42:12.122Z,8.36
2022-10-28T22:45:41.640Z,8.34
2022-10-28T22:48:56.492Z,8.41
2022-10-28T22:55:49.781Z,8.36
2022-10-28T22:58:42.977Z,8.48
2022-10-28T23:08:46.278Z,8.59
2022-10-28T23:16:08.540Z,8.90
2022-10-28T23:22:57.275Z,9.39
2022-10-28T23:26:54.963Z,9.35
2022-10-28T23:34:53.994Z,9.70
2022-10-28T23:42:50.703Z,9.88
2022-10-28T23:51:25.048Z,9.88
2022-10-28T23:58:18.431Z,9.43
